sensor_id;sensor_type;location;lat;lon;timestamp;pressure;altitude;pressure_sealevel;temperature;humidity
14885;BME280;7534;50.762;7.000;2023-03-14T00:02:09;88120.66;;;-143.16;59.66
14885;BME280;7534;50.762;7.000;2023-03-14T00:04:35;88144.88;;;-143.16;59.80
14885;BME280;7534;50.762;7.000;2023-03-14T00:07:03;88128.72;;;-143.16;59.99
14885;BME280;7534;50.762;7.000;2023-03-14T00:09:29;88096.44;;;-143.16;59.86
14885;BME280;7534;50.762;7.000;2023-03-14T00:11:56;88144.88;;;-143.16;59.94
14885;BME280;7534;50.762;7.000;2023-03-14T00:14:22;88150.94;;;-143.16;59.77
14885;BME280;7534;50.762;7.000;2023-03-14T00:16:48;88183.22;;;-143.16;60.05
14885;BME280;7534;50.762;7.000;2023-03-14T00:19:14;88052.00;;;-143.16;59.64
14885;BME280;7534;50.762;7.000;2023-03-14T00:21:41;88062.13;;;-143.16;59.36
14885;BME280;7534;50.762;7.000;2023-03-14T00:24:08;88112.56;;;-143.16;59.16
14885;BME280;7534;50.762;7.000;2023-03-14T00:26:34;88047.97;;;-143.16;58.52
14885;BME280;7534;50.762;7.000;2023-03-14T00:28:59;88029.81;;;-143.16;58.06
14885;BME280;7534;50.762;7.000;2023-03-14T00:31:25;88052.00;;;-143.16;58.17
14885;BME280;7534;50.762;7.000;2023-03-14T00:33:53;88039.91;;;-143.16;57.80
14885;BME280;7534;50.762;7.000;2023-03-14T00:36:19;87985.41;;;-143.16;58.15
14885;BME280;7534;50.762;7.000;2023-03-14T00:38:48;88019.72;;;-143.16;57.84
14885;BME280;7534;50.762;7.000;2023-03-14T00:41:19;88037.88;;;-143.16;57.88
14885;BME280;7534;50.762;7.000;2023-03-14T00:43:46;88027.78;;;-143.16;57.54
14885;BME280;7534;50.762;7.000;2023-03-14T00:46:12;88017.69;;;-143.16;57.64
14885;BME280;7534;50.762;7.000;2023-03-14T00:48:39;88037.88;;;-143.16;57.65
14885;BME280;7534;50.762;7.000;2023-03-14T00:51:06;88035.88;;;-143.16;57.59
14885;BME280;7534;50.762;7.000;2023-03-14T00:53:38;88064.13;;;-143.16;58.13
14885;BME280;7534;50.762;7.000;2023-03-14T00:56:08;88245.81;;;-143.16;58.25
14885;BME280;7534;50.762;7.000;2023-03-14T00:58:35;88082.28;;;-143.16;58.02
14885;BME280;7534;50.762;7.000;2023-03-14T01:01:08;88247.81;;;-143.16;58.13
14885;BME280;7534;50.762;7.000;2023-03-14T01:03:34;87951.09;;;-143.16;57.82
14885;BME280;7534;50.762;7.000;2023-03-14T01:06:22;88011.66;;;-143.16;58.06
14885;BME280;7534;50.762;7.000;2023-03-14T01:08:48;88033.84;;;-143.16;57.82
14885;BME280;7534;50.762;7.000;2023-03-14T01:11:22;88011.66;;;-143.16;57.79
14885;BME280;7534;50.762;7.000;2023-03-14T01:13:49;88054.03;;;-143.16;57.99
14885;BME280;7534;50.762;7.000;2023-03-14T01:16:15;88052.00;;;-143.16;57.96
14885;BME280;7534;50.762;7.000;2023-03-14T01:18:43;87938.97;;;-143.16;58.15
14885;BME280;7534;50.762;7.000;2023-03-14T01:21:26;88060.09;;;-143.16;58.13
14885;BME280;7534;50.762;7.000;2023-03-14T01:23:55;88005.59;;;-143.16;57.95
14885;BME280;7534;50.762;7.000;2023-03-14T01:26:25;88052.00;;;-143.16;58.36
14885;BME280;7534;50.762;7.000;2023-03-14T01:28:53;88007.59;;;-143.16;59.43
14885;BME280;7534;50.762;7.000;2023-03-14T01:31:20;87991.47;;;-143.16;61.12
14885;BME280;7534;50.762;7.000;2023-03-14T01:33:46;88035.88;;;-143.16;62.93
14885;BME280;7534;50.762;7.000;2023-03-14T01:36:13;88074.22;;;-143.16;63.69
14885;BME280;7534;50.762;7.000;2023-03-14T01:38:39;88080.28;;;-143.16;64.07
14885;BME280;7534;50.762;7.000;2023-03-14T01:41:07;88019.72;;;-143.16;64.38
14885;BME280;7534;50.762;7.000;2023-03-14T01:43:33;88009.63;;;-143.16;64.36
14885;BME280;7534;50.762;7.000;2023-03-14T01:48:54;88100.47;;;-143.16;64.55
14885;BME280;7534;50.762;7.000;2023-03-14T01:54:36;88110.56;;;-143.16;65.11
14885;BME280;7534;50.762;7.000;2023-03-14T01:57:25;88112.56;;;-143.16;68.68
14885;BME280;7534;50.762;7.000;2023-03-14T02:00:00;88169.09;;;-143.16;70.15
14885;BME280;7534;50.762;7.000;2023-03-14T02:02:30;88205.44;;;-143.16;70.31
14885;BME280;7534;50.762;7.000;2023-03-14T02:04:57;88142.84;;;-143.16;70.80
14885;BME280;7534;50.762;7.000;2023-03-14T02:07:41;88193.31;;;-143.16;71.76
14885;BME280;7534;50.762;7.000;2023-03-14T02:10:10;88500.16;;;-143.16;72.75
14885;BME280;7534;50.762;7.000;2023-03-14T02:12:37;88241.78;;;-143.16;73.48
14885;BME280;7534;50.762;7.000;2023-03-14T02:15:03;88213.50;;;-143.16;73.45
14885;BME280;7534;50.762;7.000;2023-03-14T02:17:30;88241.78;;;-143.16;73.67
14885;BME280;7534;50.762;7.000;2023-03-14T02:20:13;88247.81;;;-143.16;73.78
14885;BME280;7534;50.762;7.000;2023-03-14T02:22:44;88255.91;;;-143.16;73.93
14885;BME280;7534;50.762;7.000;2023-03-14T02:25:45;88219.56;;;-143.16;74.54
14885;BME280;7534;50.762;7.000;2023-03-14T02:28:14;88195.34;;;-143.16;75.08
14885;BME280;7534;50.762;7.000;2023-03-14T02:30:40;88473.94;;;-143.16;76.89
14885;BME280;7534;50.762;7.000;2023-03-14T02:33:11;88261.97;;;-143.16;77.77
14885;BME280;7534;50.762;7.000;2023-03-14T02:35:53;88302.34;;;-143.16;78.56
14885;BME280;7534;50.762;7.000;2023-03-14T02:41:09;88334.63;;;-143.16;80.60
14885;BME280;7534;50.762;7.000;2023-03-14T02:43:34;88314.44;;;-143.16;81.04
14885;BME280;7534;50.762;7.000;2023-03-14T02:46:03;88350.78;;;-143.16;81.11
14885;BME280;7534;50.762;7.000;2023-03-14T02:48:39;88405.28;;;-143.16;81.15
14885;BME280;7534;50.762;7.000;2023-03-14T02:51:07;88383.09;;;-143.16;81.42
14885;BME280;7534;50.762;7.000;2023-03-14T02:53:36;88379.03;;;-143.16;81.76
14885;BME280;7534;50.762;7.000;2023-03-14T02:56:03;88389.13;;;-143.16;82.23
14885;BME280;7534;50.762;7.000;2023-03-14T02:58:29;88364.91;;;-143.16;82.48
14885;BME280;7534;50.762;7.000;2023-03-14T03:00:55;88387.13;;;-143.16;82.60
14885;BME280;7534;50.762;7.000;2023-03-14T03:03:21;88413.38;;;-143.16;82.30
14885;BME280;7534;50.762;7.000;2023-03-14T03:05:52;88576.88;;;-143.16;82.78
14885;BME280;7534;50.762;7.000;2023-03-14T03:08:20;88421.44;;;-143.16;82.69
14885;BME280;7534;50.762;7.000;2023-03-14T03:10:47;88435.56;;;-143.16;81.92
14885;BME280;7534;50.762;7.000;2023-03-14T03:13:14;88395.19;;;-143.16;81.12
14885;BME280;7534;50.762;7.000;2023-03-14T03:15:39;88377.03;;;-143.16;78.87
14885;BME280;7534;50.762;7.000;2023-03-14T03:18:06;88330.59;;;-143.16;77.55
14885;BME280;7534;50.762;7.000;2023-03-14T03:20:32;88572.84;;;-143.16;76.86
14885;BME280;7534;50.762;7.000;2023-03-14T03:22:59;88187.25;;;-143.16;75.23
14885;BME280;7534;50.762;7.000;2023-03-14T03:25:25;88370.97;;;-143.16;74.56
14885;BME280;7534;50.762;7.000;2023-03-14T03:27:50;88342.72;;;-143.16;74.04
14885;BME280;7534;50.762;7.000;2023-03-14T03:30:16;88272.06;;;-143.16;73.57
14885;BME280;7534;50.762;7.000;2023-03-14T03:32:42;88322.53;;;-143.16;73.27
14885;BME280;7534;50.762;7.000;2023-03-14T03:35:08;88326.56;;;-143.16;71.62
14885;BME280;7534;50.762;7.000;2023-03-14T03:37:35;88290.22;;;-143.16;70.92
14885;BME280;7534;50.762;7.000;2023-03-14T03:40:01;88298.28;;;-143.16;70.85
14885;BME280;7534;50.762;7.000;2023-03-14T03:42:27;88310.41;;;-143.16;71.02
14885;BME280;7534;50.762;7.000;2023-03-14T03:44:53;88276.09;;;-143.16;70.62
14885;BME280;7534;50.762;7.000;2023-03-14T03:47:18;88233.69;;;-143.16;70.73
14885;BME280;7534;50.762;7.000;2023-03-14T03:49:44;88389.13;;;-143.16;71.06
14885;BME280;7534;50.762;7.000;2023-03-14T03:52:10;88290.22;;;-143.16;71.05
14885;BME280;7534;50.762;7.000;2023-03-14T03:54:36;88310.41;;;-143.16;71.49
14885;BME280;7534;50.762;7.000;2023-03-14T03:57:01;88209.47;;;-143.16;71.16
14885;BME280;7534;50.762;7.000;2023-03-14T03:59:27;88261.97;;;-143.16;71.13
14885;BME280;7534;50.762;7.000;2023-03-14T04:01:53;88266.00;;;-143.16;71.39
14885;BME280;7534;50.762;7.000;2023-03-14T04:04:19;88274.06;;;-143.16;71.13
14885;BME280;7534;50.762;7.000;2023-03-14T04:06:44;88296.28;;;-143.16;71.03
14885;BME280;7534;50.762;7.000;2023-03-14T04:09:10;88284.16;;;-143.16;71.16
14885;BME280;7534;50.762;7.000;2023-03-14T04:11:36;88235.72;;;-143.16;71.00
14885;BME280;7534;50.762;7.000;2023-03-14T04:14:03;88201.41;;;-143.16;71.45
14885;BME280;7534;50.762;7.000;2023-03-14T04:16:30;88284.16;;;-143.16;71.50
14885;BME280;7534;50.762;7.000;2023-03-14T04:18:57;88249.84;;;-143.16;71.71
14885;BME280;7534;50.762;7.000;2023-03-14T04:21:23;88294.25;;;-143.16;71.86
14885;BME280;7534;50.762;7.000;2023-03-14T04:23:49;88219.56;;;-143.16;71.80
14885;BME280;7534;50.762;7.000;2023-03-14T04:26:15;88417.41;;;-143.16;72.14
14885;BME280;7534;50.762;7.000;2023-03-14T04:28:42;88298.28;;;-143.16;71.85
14885;BME280;7534;50.762;7.000;2023-03-14T04:31:09;88310.41;;;-143.16;71.70
14885;BME280;7534;50.762;7.000;2023-03-14T04:33:35;88070.19;;;-143.16;71.20
14885;BME280;7534;50.762;7.000;2023-03-14T04:36:04;88261.97;;;-143.16;71.87
14885;BME280;7534;50.762;7.000;2023-03-14T04:38:30;88276.09;;;-143.16;72.04
14885;BME280;7534;50.762;7.000;2023-03-14T04:40:56;88473.94;;;-143.16;72.19
14885;BME280;7534;50.762;7.000;2023-03-14T04:43:21;88449.69;;;-143.16;72.38
14885;BME280;7534;50.762;7.000;2023-03-14T04:45:47;88233.69;;;-143.16;72.78
14885;BME280;7534;50.762;7.000;2023-03-14T04:48:13;88298.28;;;-143.16;73.42
14885;BME280;7534;50.762;7.000;2023-03-14T04:50:42;88508.25;;;-143.16;74.57
14885;BME280;7534;50.762;7.000;2023-03-14T04:53:07;88223.59;;;-143.16;74.79
14885;BME280;7534;50.762;7.000;2023-03-14T04:55:33;88455.75;;;-143.16;75.31
14885;BME280;7534;50.762;7.000;2023-03-14T04:58:00;88368.94;;;-143.16;75.48
14885;BME280;7534;50.762;7.000;2023-03-14T05:00:25;88249.84;;;-143.16;75.75
14885;BME280;7534;50.762;7.000;2023-03-14T05:02:51;88534.50;;;-143.16;75.76
14885;BME280;7534;50.762;7.000;2023-03-14T05:05:17;88302.34;;;-143.16;75.88
14885;BME280;7534;50.762;7.000;2023-03-14T05:07:42;88239.75;;;-143.16;76.84
14885;BME280;7534;50.762;7.000;2023-03-14T05:10:09;88274.06;;;-143.16;76.27
14885;BME280;7534;50.762;7.000;2023-03-14T05:12:35;88268.00;;;-143.16;76.17
14885;BME280;7534;50.762;7.000;2023-03-14T05:15:01;88310.41;;;-143.16;76.34
14885;BME280;7534;50.762;7.000;2023-03-14T05:17:26;88229.66;;;-143.16;76.08
14885;BME280;7534;50.762;7.000;2023-03-14T05:19:52;88257.91;;;-143.16;76.11
14885;BME280;7534;50.762;7.000;2023-03-14T05:22:18;88302.34;;;-143.16;76.10
14885;BME280;7534;50.762;7.000;2023-03-14T05:24:43;88310.41;;;-143.16;76.12
14885;BME280;7534;50.762;7.000;2023-03-14T05:27:09;88449.69;;;-143.16;75.51
14885;BME280;7534;50.762;7.000;2023-03-14T05:29:35;88346.75;;;-143.16;75.73
14885;BME280;7534;50.762;7.000;2023-03-14T05:32:02;88296.28;;;-143.16;75.49
14885;BME280;7534;50.762;7.000;2023-03-14T05:34:27;88294.25;;;-143.16;75.66
14885;BME280;7534;50.762;7.000;2023-03-14T05:36:53;88326.56;;;-143.16;75.91
14885;BME280;7534;50.762;7.000;2023-03-14T05:39:20;88350.78;;;-143.16;75.56
14885;BME280;7534;50.762;7.000;2023-03-14T05:41:45;88292.22;;;-143.16;75.67
14885;BME280;7534;50.762;7.000;2023-03-14T05:44:11;88350.78;;;-143.16;75.75
14885;BME280;7534;50.762;7.000;2023-03-14T05:46:37;88358.84;;;-143.16;75.99
14885;BME280;7534;50.762;7.000;2023-03-14T05:49:02;88334.63;;;-143.16;76.09
14885;BME280;7534;50.762;7.000;2023-03-14T05:51:28;88181.22;;;-143.16;75.98
14885;BME280;7534;50.762;7.000;2023-03-14T05:53:56;88253.88;;;-143.16;75.59
14885;BME280;7534;50.762;7.000;2023-03-14T05:56:21;88364.91;;;-143.16;75.13
14885;BME280;7534;50.762;7.000;2023-03-14T05:58:49;88231.69;;;-143.16;75.79
14885;BME280;7534;50.762;7.000;2023-03-14T06:01:15;88310.41;;;-143.16;75.71
14885;BME280;7534;50.762;7.000;2023-03-14T06:03:40;88278.09;;;-143.16;75.53
14885;BME280;7534;50.762;7.000;2023-03-14T06:06:06;88584.97;;;-143.16;76.08
14885;BME280;7534;50.762;7.000;2023-03-14T06:08:32;88288.19;;;-143.16;75.67
14885;BME280;7534;50.762;7.000;2023-03-14T06:10:59;88302.34;;;-143.16;75.75
14885;BME280;7534;50.762;7.000;2023-03-14T06:13:25;88324.53;;;-143.16;75.32
14885;BME280;7534;50.762;7.000;2023-03-14T06:15:50;88516.31;;;-143.16;75.34
14885;BME280;7534;50.762;7.000;2023-03-14T06:18:16;88292.22;;;-143.16;75.79
14885;BME280;7534;50.762;7.000;2023-03-14T06:20:42;88253.88;;;-143.16;75.46
14885;BME280;7534;50.762;7.000;2023-03-14T06:23:08;88328.56;;;-143.16;75.71
14885;BME280;7534;50.762;7.000;2023-03-14T06:25:35;88312.44;;;-143.16;75.84
14885;BME280;7534;50.762;7.000;2023-03-14T06:28:01;88322.53;;;-143.16;75.99
14885;BME280;7534;50.762;7.000;2023-03-14T06:30:27;88274.06;;;-143.16;75.89
14885;BME280;7534;50.762;7.000;2023-03-14T06:32:53;88324.53;;;-143.16;75.45
14885;BME280;7534;50.762;7.000;2023-03-14T06:35:23;88259.94;;;-143.16;75.37
14885;BME280;7534;50.762;7.000;2023-03-14T06:37:48;88274.06;;;-143.16;75.23
14885;BME280;7534;50.762;7.000;2023-03-14T06:40:15;88255.91;;;-143.16;74.50
14885;BME280;7534;50.762;7.000;2023-03-14T06:42:47;88247.81;;;-143.16;74.25
14885;BME280;7534;50.762;7.000;2023-03-14T06:45:13;88181.22;;;-143.16;73.89
14885;BME280;7534;50.762;7.000;2023-03-14T06:47:39;88259.94;;;-143.16;74.59
14885;BME280;7534;50.762;7.000;2023-03-14T06:50:08;88179.19;;;-143.16;73.31
14885;BME280;7534;50.762;7.000;2023-03-14T06:52:34;88078.25;;;-143.16;72.85
14885;BME280;7534;50.762;7.000;2023-03-14T06:55:02;87945.03;;;-143.16;68.84
14885;BME280;7534;50.762;7.000;2023-03-14T06:57:28;87858.25;;;-143.16;59.73
14885;BME280;7534;50.762;7.000;2023-03-14T06:59:53;87769.44;;;-143.16;60.69
14885;BME280;7534;50.762;7.000;2023-03-14T07:02:19;87567.59;;;-143.16;55.39
14885;BME280;7534;50.762;7.000;2023-03-14T07:04:45;87359.72;;;-143.16;50.66
14885;BME280;7534;50.762;7.000;2023-03-14T07:07:11;87490.91;;;-143.16;49.94
14885;BME280;7534;50.762;7.000;2023-03-14T07:09:37;87519.16;;;-143.16;50.30
14885;BME280;7534;50.762;7.000;2023-03-14T07:12:03;87571.63;;;-143.16;51.08
14885;BME280;7534;50.762;7.000;2023-03-14T07:14:30;87363.75;;;-143.16;50.95
14885;BME280;7534;50.762;7.000;2023-03-14T07:16:55;87196.25;;;-143.16;47.26
14885;BME280;7534;50.762;7.000;2023-03-14T07:19:21;87236.59;;;-143.16;43.80
14885;BME280;7534;50.762;7.000;2023-03-14T07:21:47;86958.13;;;-143.16;42.26
14885;BME280;7534;50.762;7.000;2023-03-14T07:24:13;86820.91;;;-143.16;39.85
14885;BME280;7534;50.762;7.000;2023-03-14T07:26:39;86828.97;;;-143.16;39.36
14885;BME280;7534;50.762;7.000;2023-03-14T07:29:04;86946.00;;;-143.16;41.09
14885;BME280;7534;50.762;7.000;2023-03-14T07:31:31;86974.25;;;-143.16;41.17
14885;BME280;7534;50.762;7.000;2023-03-14T07:33:57;86746.25;;;-143.16;40.83
14885;BME280;7534;50.762;7.000;2023-03-14T07:36:23;86445.59;;;-143.16;37.39
14885;BME280;7534;50.762;7.000;2023-03-14T07:38:48;86421.38;;;-143.16;34.63
14885;BME280;7534;50.762;7.000;2023-03-14T07:41:14;86215.59;;;-143.16;35.76
14885;BME280;7534;50.762;7.000;2023-03-14T07:43:40;85997.72;;;-143.16;32.66
14885;BME280;7534;50.762;7.000;2023-03-14T07:46:07;85804.03;;;-143.16;31.15
14885;BME280;7534;50.762;7.000;2023-03-14T07:48:33;86473.84;;;-143.16;33.67
14885;BME280;7534;50.762;7.000;2023-03-14T07:50:59;86445.59;;;-143.16;36.01
14885;BME280;7534;50.762;7.000;2023-03-14T07:53:25;86387.09;;;-143.16;34.49
14885;BME280;7534;50.762;7.000;2023-03-14T07:55:52;86316.47;;;-143.16;35.10
14885;BME280;7534;50.762;7.000;2023-03-14T07:58:19;86308.41;;;-143.16;34.62
14885;BME280;7534;50.762;7.000;2023-03-14T08:00:45;86090.50;;;-143.16;33.07
14885;BME280;7534;50.762;7.000;2023-03-14T08:03:14;86124.81;;;-143.16;32.13
14885;BME280;7534;50.762;7.000;2023-03-14T08:05:41;86098.56;;;-143.16;32.00
14885;BME280;7534;50.762;7.000;2023-03-14T08:08:07;86689.75;;;-143.16;35.81
14885;BME280;7534;50.762;7.000;2023-03-14T08:10:33;86693.78;;;-143.16;35.80
14885;BME280;7534;50.762;7.000;2023-03-14T08:13:01;86697.81;;;-143.16;36.46
14885;BME280;7534;50.762;7.000;2023-03-14T08:15:29;86744.22;;;-143.16;36.50
14885;BME280;7534;50.762;7.000;2023-03-14T08:17:55;86699.81;;;-143.16;36.69
14885;BME280;7534;50.762;7.000;2023-03-14T08:20:25;86798.69;;;-143.16;38.00
14885;BME280;7534;50.762;7.000;2023-03-14T08:22:51;87145.78;;;-143.16;41.02
14885;BME280;7534;50.762;7.000;2023-03-14T08:25:17;86994.44;;;-143.16;40.11
14885;BME280;7534;50.762;7.000;2023-03-14T08:27:43;87188.16;;;-143.16;41.45
14885;BME280;7534;50.762;7.000;2023-03-14T08:30:15;87379.91;;;-143.16;44.31
14885;BME280;7534;50.762;7.000;2023-03-14T08:32:41;87408.16;;;-143.16;45.72
14885;BME280;7534;50.762;7.000;2023-03-14T08:35:08;87492.91;;;-143.16;47.47
14885;BME280;7534;50.762;7.000;2023-03-14T08:37:34;87648.31;;;-143.16;48.00
14885;BME280;7534;50.762;7.000;2023-03-14T08:40:02;87672.53;;;-143.16;49.44
14885;BME280;7534;50.762;7.000;2023-03-14T08:42:32;87618.06;;;-143.16;51.34
14885;BME280;7534;50.762;7.000;2023-03-14T08:44:58;87692.72;;;-143.16;51.68
14885;BME280;7534;50.762;7.000;2023-03-14T08:47:24;87737.13;;;-143.16;52.18
14885;BME280;7534;50.762;7.000;2023-03-14T08:49:50;87684.66;;;-143.16;52.76
14885;BME280;7534;50.762;7.000;2023-03-14T08:52:16;87696.75;;;-143.16;53.33
14885;BME280;7534;50.762;7.000;2023-03-14T08:54:44;87805.75;;;-143.16;54.55
14885;BME280;7534;50.762;7.000;2023-03-14T08:57:10;87767.41;;;-143.16;55.47
14885;BME280;7534;50.762;7.000;2023-03-14T08:59:35;87743.19;;;-143.16;55.96
14885;BME280;7534;50.762;7.000;2023-03-14T09:02:01;87771.44;;;-143.16;56.13
14885;BME280;7534;50.762;7.000;2023-03-14T09:04:32;87832.00;;;-143.16;57.25
14885;BME280;7534;50.762;7.000;2023-03-14T09:06:59;87844.09;;;-143.16;59.18
14885;BME280;7534;50.762;7.000;2023-03-14T09:09:26;87838.06;;;-143.16;61.49
14885;BME280;7534;50.762;7.000;2023-03-14T09:11:56;88007.59;;;-143.16;64.23
14885;BME280;7534;50.762;7.000;2023-03-14T09:14:22;87902.66;;;-143.16;66.67
14885;BME280;7534;50.762;7.000;2023-03-14T09:16:48;87947.06;;;-143.16;67.54
14885;BME280;7534;50.762;7.000;2023-03-14T09:19:14;87975.31;;;-143.16;68.79
14885;BME280;7534;50.762;7.000;2023-03-14T09:21:39;87878.41;;;-143.16;69.62
14885;BME280;7534;50.762;7.000;2023-03-14T09:24:05;87947.06;;;-143.16;69.58
14885;BME280;7534;50.762;7.000;2023-03-14T09:26:31;87987.44;;;-143.16;69.14
14885;BME280;7534;50.762;7.000;2023-03-14T09:28:57;87850.16;;;-143.16;68.84
14885;BME280;7534;50.762;7.000;2023-03-14T09:31:23;87892.56;;;-143.16;68.53
14885;BME280;7534;50.762;7.000;2023-03-14T09:33:49;87872.38;;;-143.16;68.21
14885;BME280;7534;50.762;7.000;2023-03-14T09:36:14;87922.81;;;-143.16;68.31
14885;BME280;7534;50.762;7.000;2023-03-14T09:38:40;87908.69;;;-143.16;68.17
14885;BME280;7534;50.762;7.000;2023-03-14T09:41:21;87943.00;;;-143.16;69.08
14885;BME280;7534;50.762;7.000;2023-03-14T09:43:56;87991.47;;;-143.16;69.75
14885;BME280;7534;50.762;7.000;2023-03-14T09:46:24;88021.75;;;-143.16;69.80
14885;BME280;7534;50.762;7.000;2023-03-14T09:48:50;88043.94;;;-143.16;69.74
14885;BME280;7534;50.762;7.000;2023-03-14T09:51:20;88116.63;;;-143.16;71.45
14885;BME280;7534;50.762;7.000;2023-03-14T09:53:49;88243.78;;;-143.16;72.73
14885;BME280;7534;50.762;7.000;2023-03-14T09:56:26;88249.84;;;-143.16;74.39
14885;BME280;7534;50.762;7.000;2023-03-14T09:59:03;88298.28;;;-143.16;74.43
14885;BME280;7534;50.762;7.000;2023-03-14T10:01:32;88360.88;;;-143.16;76.40
14885;BME280;7534;50.762;7.000;2023-03-14T10:04:12;88364.91;;;-143.16;77.01
14885;BME280;7534;50.762;7.000;2023-03-14T10:06:40;88320.50;;;-143.16;77.61
14885;BME280;7534;50.762;7.000;2023-03-14T10:09:11;88336.66;;;-143.16;78.38
14885;BME280;7534;50.762;7.000;2023-03-14T10:11:41;88401.25;;;-143.16;78.74
14885;BME280;7534;50.762;7.000;2023-03-14T10:14:10;88344.72;;;-143.16;78.70
14885;BME280;7534;50.762;7.000;2023-03-14T10:16:44;88413.38;;;-143.16;77.35
14885;BME280;7534;50.762;7.000;2023-03-14T10:19:13;88381.06;;;-143.16;77.24
14885;BME280;7534;50.762;7.000;2023-03-14T10:21:50;88385.09;;;-143.16;77.58
14885;BME280;7534;50.762;7.000;2023-03-14T10:26:59;88393.19;;;-143.16;77.06
14885;BME280;7534;50.762;7.000;2023-03-14T10:29:29;88354.81;;;-143.16;77.39
14885;BME280;7534;50.762;7.000;2023-03-14T10:32:10;88413.38;;;-143.16;76.55
14885;BME280;7534;50.762;7.000;2023-03-14T10:34:44;88381.06;;;-143.16;77.15
14885;BME280;7534;50.762;7.000;2023-03-14T10:37:21;88391.16;;;-143.16;76.62
14885;BME280;7534;50.762;7.000;2023-03-14T10:39:53;88443.66;;;-143.16;76.41
14885;BME280;7534;50.762;7.000;2023-03-14T10:42:27;88455.75;;;-143.16;76.81
14885;BME280;7534;50.762;7.000;2023-03-14T10:45:20;88393.19;;;-143.16;77.01
14885;BME280;7534;50.762;7.000;2023-03-14T10:47:51;88451.72;;;-143.16;77.24
14885;BME280;7534;50.762;7.000;2023-03-14T10:50:30;88397.22;;;-143.16;76.82
14885;BME280;7534;50.762;7.000;2023-03-14T10:53:01;88415.38;;;-143.16;76.48
14885;BME280;7534;50.762;7.000;2023-03-14T10:55:42;88350.78;;;-143.16;76.71
14885;BME280;7534;50.762;7.000;2023-03-14T10:58:24;88391.16;;;-143.16;75.90
14885;BME280;7534;50.762;7.000;2023-03-14T11:01:02;88350.78;;;-143.16;74.71
14885;BME280;7534;50.762;7.000;2023-03-14T11:03:35;88409.31;;;-143.16;74.17
14885;BME280;7534;50.762;7.000;2023-03-14T11:06:22;88354.81;;;-143.16;74.12
14885;BME280;7534;50.762;7.000;2023-03-14T11:09:15;88455.75;;;-143.16;73.80
14885;BME280;7534;50.762;7.000;2023-03-14T11:11:47;88415.38;;;-143.16;73.60
14885;BME280;7534;50.762;7.000;2023-03-14T11:14:34;88395.19;;;-143.16;73.72
14885;BME280;7534;50.762;7.000;2023-03-14T11:17:39;88334.63;;;-143.16;75.54
14885;BME280;7534;50.762;7.000;2023-03-14T11:20:38;88469.88;;;-143.16;75.34
14885;BME280;7534;50.762;7.000;2023-03-14T11:26:05;88342.72;;;-143.16;72.09
14885;BME280;7534;50.762;7.000;2023-03-14T11:28:40;88280.13;;;-143.16;69.01
14885;BME280;7534;50.762;7.000;2023-03-14T11:31:27;88296.28;;;-143.16;65.93
14885;BME280;7534;50.762;7.000;2023-03-14T11:34:16;88346.75;;;-143.16;66.90
14885;BME280;7534;50.762;7.000;2023-03-14T11:37:06;88223.59;;;-143.16;65.66
14885;BME280;7534;50.762;7.000;2023-03-14T11:39:52;88159.00;;;-143.16;63.09
14885;BME280;7534;50.762;7.000;2023-03-14T11:42:21;88207.44;;;-143.16;63.19
14885;BME280;7534;50.762;7.000;2023-03-14T11:44:49;88148.91;;;-143.16;62.68
14885;BME280;7534;50.762;7.000;2023-03-14T11:47:39;88157.00;;;-143.16;61.97
14885;BME280;7534;50.762;7.000;2023-03-14T11:50:24;88165.06;;;-143.16;62.24
14885;BME280;7534;50.762;7.000;2023-03-14T11:53:03;88043.94;;;-143.16;59.87
14885;BME280;7534;50.762;7.000;2023-03-14T11:55:34;88132.75;;;-143.16;59.50
14885;BME280;7534;50.762;7.000;2023-03-14T11:58:26;88080.28;;;-143.16;59.66
14885;BME280;7534;50.762;7.000;2023-03-14T12:00:55;88241.78;;;-143.16;58.54
14885;BME280;7534;50.762;7.000;2023-03-14T12:03:41;88088.34;;;-143.16;57.89
14885;BME280;7534;50.762;7.000;2023-03-14T12:06:51;88157.00;;;-143.16;58.11
14885;BME280;7534;50.762;7.000;2023-03-14T12:09:20;88294.25;;;-143.16;63.21
14885;BME280;7534;50.762;7.000;2023-03-14T12:12:00;88334.63;;;-143.16;66.03
14885;BME280;7534;50.762;7.000;2023-03-14T12:14:32;88524.41;;;-143.16;67.85
14885;BME280;7534;50.762;7.000;2023-03-14T12:17:22;88419.41;;;-143.16;69.97
14885;BME280;7534;50.762;7.000;2023-03-14T12:20:24;88435.56;;;-143.16;71.67
14885;BME280;7534;50.762;7.000;2023-03-14T12:23:02;88488.06;;;-143.16;72.85
14885;BME280;7534;50.762;7.000;2023-03-14T12:25:33;88484.03;;;-143.16;73.62
14885;BME280;7534;50.762;7.000;2023-03-14T12:28:32;88475.94;;;-143.16;74.03
14885;BME280;7534;50.762;7.000;2023-03-14T12:39:53;88558.72;;;-143.16;77.06
14885;BME280;7534;50.762;7.000;2023-03-14T12:42:54;88560.75;;;-143.16;76.52
14885;BME280;7534;50.762;7.000;2023-03-14T12:45:29;88532.47;;;-143.16;76.16
14885;BME280;7534;50.762;7.000;2023-03-14T12:48:10;88528.44;;;-143.16;76.30
14885;BME280;7534;50.762;7.000;2023-03-14T12:50:53;88377.03;;;-143.16;74.71
14885;BME280;7534;50.762;7.000;2023-03-14T12:53:56;88514.31;;;-143.16;74.11
14885;BME280;7534;50.762;7.000;2023-03-14T12:57:21;88465.84;;;-143.16;73.54
14885;BME280;7534;50.762;7.000;2023-03-14T12:59:58;88455.75;;;-143.16;73.22
14885;BME280;7534;50.762;7.000;2023-03-14T13:02:37;88358.84;;;-143.16;72.84
14885;BME280;7534;50.762;7.000;2023-03-14T13:05:18;88389.13;;;-143.16;71.94
14885;BME280;7534;50.762;7.000;2023-03-14T13:13:15;88411.34;;;-143.16;71.82
14885;BME280;7534;50.762;7.000;2023-03-14T13:15:46;88498.16;;;-143.16;72.34
14885;BME280;7534;50.762;7.000;2023-03-14T13:18:18;88427.50;;;-143.16;72.46
14885;BME280;7534;50.762;7.000;2023-03-14T13:20:53;88399.22;;;-143.16;71.81
14885;BME280;7534;50.762;7.000;2023-03-14T13:23:28;88439.59;;;-143.16;71.64
14885;BME280;7534;50.762;7.000;2023-03-14T13:25:56;88475.94;;;-143.16;70.98
14885;BME280;7534;50.762;7.000;2023-03-14T13:28:23;88439.59;;;-143.16;71.43
14885;BME280;7534;50.762;7.000;2023-03-14T13:30:55;88475.94;;;-143.16;71.93
14885;BME280;7534;50.762;7.000;2023-03-14T13:33:23;88443.66;;;-143.16;72.83
14885;BME280;7534;50.762;7.000;2023-03-14T13:36:02;88498.16;;;-143.16;72.47